sensor_id;sensor_type;location;lat;lon;timestamp;P1;durP1;ratioP1;P2;durP2;ratioP2
41546;SDS011;27271;45.412;10.852;2023-07-02T04:33:56;10.18;;;3.90;;
41546;SDS011;27271;45.412;10.852;2023-07-02T04:37:32;4.95;;;3.30;;
41546;SDS011;27271;45.412;10.852;2023-07-02T04:40:58;4.38;;;3.40;;
41546;SDS011;27271;45.412;10.852;2023-07-02T04:44:34;7.13;;;4.15;;
41546;SDS011;27271;45.412;10.852;2023-07-02T04:48:00;6.68;;;4.80;;
41546;SDS011;27271;45.412;10.852;2023-07-02T04:51:34;9.27;;;5.47;;
41546;SDS011;27271;45.412;10.852;2023-07-02T04:55:37;3.47;;;3.08;;
41546;SDS011;27271;45.412;10.852;2023-07-02T04:59:20;4.47;;;3.10;;
41546;SDS011;27271;45.412;10.852;2023-07-02T05:03:37;7.07;;;3.67;;
41546;SDS011;27271;45.412;10.852;2023-07-02T05:07:21;7.07;;;3.88;;
41546;SDS011;27271;45.412;10.852;2023-07-02T05:11:20;5.45;;;3.65;;
41546;SDS011;27271;45.412;10.852;2023-07-02T05:15:11;5.75;;;3.47;;
41546;SDS011;27271;45.412;10.852;2023-07-02T05:20:23;5.32;;;3.33;;
41546;SDS011;27271;45.412;10.852;2023-07-02T05:24:08;6.57;;;3.25;;
41546;SDS011;27271;45.412;10.852;2023-07-02T05:28:10;4.63;;;3.05;;
41546;SDS011;27271;45.412;10.852;2023-07-02T05:32:10;5.03;;;3.50;;
41546;SDS011;27271;45.412;10.852;2023-07-02T05:35:49;9.48;;;5.30;;
41546;SDS011;27271;45.412;10.852;2023-07-02T05:40:06;3.97;;;2.97;;
41546;SDS011;27271;45.412;10.852;2023-07-02T05:43:38;5.03;;;3.42;;
41546;SDS011;27271;45.412;10.852;2023-07-02T05:56:33;5.75;;;3.80;;
41546;SDS011;27271;45.412;10.852;2023-07-02T06:01:26;3.80;;;2.67;;
41546;SDS011;27271;45.412;10.852;2023-07-02T06:04:49;5.20;;;3.55;;
41546;SDS011;27271;45.412;10.852;2023-07-02T06:08:11;5.03;;;2.45;;
41546;SDS011;27271;45.412;10.852;2023-07-02T06:11:34;2.80;;;1.88;;
41546;SDS011;27271;45.412;10.852;2023-07-02T06:14:58;3.55;;;2.92;;
41546;SDS011;27271;45.412;10.852;2023-07-02T06:18:33;5.22;;;3.03;;
41546;SDS011;27271;45.412;10.852;2023-07-02T06:22:05;3.30;;;2.08;;
41546;SDS011;27271;45.412;10.852;2023-07-02T06:30:15;5.32;;;2.53;;
41546;SDS011;27271;45.412;10.852;2023-07-02T06:33:38;4.38;;;2.45;;
41546;SDS011;27271;45.412;10.852;2023-07-02T06:37:02;4.10;;;2.60;;
41546;SDS011;27271;45.412;10.852;2023-07-02T06:40:28;4.85;;;2.85;;
41546;SDS011;27271;45.412;10.852;2023-07-02T06:43:50;3.63;;;2.65;;
41546;SDS011;27271;45.412;10.852;2023-07-02T06:47:13;4.72;;;2.42;;
41546;SDS011;27271;45.412;10.852;2023-07-02T06:50:35;3.22;;;2.70;;
41546;SDS011;27271;45.412;10.852;2023-07-02T06:53:57;3.90;;;2.33;;
41546;SDS011;27271;45.412;10.852;2023-07-02T06:57:19;3.70;;;2.78;;
41546;SDS011;27271;45.412;10.852;2023-07-02T07:00:42;3.83;;;2.65;;
41546;SDS011;27271;45.412;10.852;2023-07-02T07:04:04;1.95;;;1.48;;
41546;SDS011;27271;45.412;10.852;2023-07-02T07:07:26;3.00;;;1.50;;
41546;SDS011;27271;45.412;10.852;2023-07-02T07:10:49;3.00;;;2.42;;
41546;SDS011;27271;45.412;10.852;2023-07-02T07:14:20;4.18;;;3.20;;
41546;SDS011;27271;45.412;10.852;2023-07-02T07:17:49;5.60;;;2.73;;
41546;SDS011;27271;45.412;10.852;2023-07-02T07:21:19;3.75;;;2.42;;
41546;SDS011;27271;45.412;10.852;2023-07-02T07:24:56;5.18;;;2.75;;
41546;SDS011;27271;45.412;10.852;2023-07-02T07:28:19;4.22;;;2.30;;
41546;SDS011;27271;45.412;10.852;2023-07-02T07:31:41;2.95;;;2.47;;
41546;SDS011;27271;45.412;10.852;2023-07-02T07:35:06;3.85;;;2.38;;
41546;SDS011;27271;45.412;10.852;2023-07-02T07:38:28;3.72;;;2.90;;
41546;SDS011;27271;45.412;10.852;2023-07-02T07:41:53;3.47;;;3.05;;
41546;SDS011;27271;45.412;10.852;2023-07-02T07:45:15;5.47;;;2.88;;
41546;SDS011;27271;45.412;10.852;2023-07-02T07:52:57;4.65;;;3.63;;
41546;SDS011;27271;45.412;10.852;2023-07-02T07:56:20;5.25;;;3.83;;
41546;SDS011;27271;45.412;10.852;2023-07-02T07:59:45;5.40;;;3.20;;
41546;SDS011;27271;45.412;10.852;2023-07-02T08:03:11;5.63;;;3.03;;
41546;SDS011;27271;45.412;10.852;2023-07-02T08:06:41;4.32;;;2.67;;
41546;SDS011;27271;45.412;10.852;2023-07-02T08:10:12;4.32;;;3.08;;
41546;SDS011;27271;45.412;10.852;2023-07-02T08:13:34;6.43;;;3.90;;
41546;SDS011;27271;45.412;10.852;2023-07-02T08:16:57;5.30;;;3.17;;
41546;SDS011;27271;45.412;10.852;2023-07-02T08:20:19;7.95;;;3.42;;
41546;SDS011;27271;45.412;10.852;2023-07-02T08:23:42;3.90;;;2.75;;
41546;SDS011;27271;45.412;10.852;2023-07-02T08:27:12;4.35;;;3.58;;
41546;SDS011;27271;45.412;10.852;2023-07-02T08:30:45;5.57;;;3.25;;
41546;SDS011;27271;45.412;10.852;2023-07-02T08:34:22;3.72;;;3.08;;
41546;SDS011;27271;45.412;10.852;2023-07-02T08:37:45;6.88;;;2.95;;
41546;SDS011;27271;45.412;10.852;2023-07-02T08:41:07;6.68;;;3.75;;
41546;SDS011;27271;45.412;10.852;2023-07-02T08:44:29;8.13;;;3.35;;
41546;SDS011;27271;45.412;10.852;2023-07-02T08:47:51;4.13;;;3.25;;
41546;SDS011;27271;45.412;10.852;2023-07-02T08:51:18;6.22;;;3.72;;
41546;SDS011;27271;45.412;10.852;2023-07-02T08:54:42;7.55;;;4.85;;
41546;SDS011;27271;45.412;10.852;2023-07-02T08:58:04;5.45;;;2.85;;
41546;SDS011;27271;45.412;10.852;2023-07-02T09:01:26;7.78;;;3.83;;
41546;SDS011;27271;45.412;10.852;2023-07-02T09:04:58;6.22;;;4.22;;
41546;SDS011;27271;45.412;10.852;2023-07-02T09:08:24;4.00;;;2.42;;
41546;SDS011;27271;45.412;10.852;2023-07-02T09:11:50;8.32;;;4.05;;
41546;SDS011;27271;45.412;10.852;2023-07-02T09:15:13;5.13;;;4.53;;
41546;SDS011;27271;45.412;10.852;2023-07-02T09:18:35;7.57;;;4.65;;
41546;SDS011;27271;45.412;10.852;2023-07-02T09:21:58;6.07;;;3.78;;
41546;SDS011;27271;45.412;10.852;2023-07-02T09:25:21;3.88;;;3.55;;
41546;SDS011;27271;45.412;10.852;2023-07-02T09:28:43;6.85;;;3.70;;
41546;SDS011;27271;45.412;10.852;2023-07-02T09:32:06;6.75;;;3.53;;
41546;SDS011;27271;45.412;10.852;2023-07-02T09:35:31;6.55;;;4.50;;
41546;SDS011;27271;45.412;10.852;2023-07-02T09:38:53;5.07;;;3.75;;
41546;SDS011;27271;45.412;10.852;2023-07-02T09:42:16;6.82;;;4.25;;
41546;SDS011;27271;45.412;10.852;2023-07-02T09:45:44;4.88;;;3.17;;
41546;SDS011;27271;45.412;10.852;2023-07-02T09:49:09;5.85;;;3.17;;
41546;SDS011;27271;45.412;10.852;2023-07-02T09:52:35;7.35;;;4.13;;
41546;SDS011;27271;45.412;10.852;2023-07-02T09:55:57;9.27;;;4.32;;
41546;SDS011;27271;45.412;10.852;2023-07-02T09:59:19;6.25;;;3.42;;
41546;SDS011;27271;45.412;10.852;2023-07-02T10:02:41;7.30;;;4.38;;
41546;SDS011;27271;45.412;10.852;2023-07-02T10:06:10;6.75;;;4.43;;
41546;SDS011;27271;45.412;10.852;2023-07-02T10:09:36;5.93;;;3.38;;
41546;SDS011;27271;45.412;10.852;2023-07-02T10:13:00;5.47;;;3.75;;
41546;SDS011;27271;45.412;10.852;2023-07-02T10:16:22;5.47;;;4.30;;
41546;SDS011;27271;45.412;10.852;2023-07-02T10:19:51;6.35;;;4.43;;
41546;SDS011;27271;45.412;10.852;2023-07-02T10:27:36;4.22;;;3.17;;
41546;SDS011;27271;45.412;10.852;2023-07-02T10:30:59;4.88;;;3.58;;
41546;SDS011;27271;45.412;10.852;2023-07-02T10:34:35;4.95;;;3.10;;
41546;SDS011;27271;45.412;10.852;2023-07-02T10:37:57;7.05;;;4.47;;
41546;SDS011;27271;45.412;10.852;2023-07-02T10:41:26;5.90;;;3.58;;
41546;SDS011;27271;45.412;10.852;2023-07-02T10:44:51;5.03;;;3.28;;
41546;SDS011;27271;45.412;10.852;2023-07-02T10:48:14;4.53;;;2.88;;
41546;SDS011;27271;45.412;10.852;2023-07-02T10:51:36;7.95;;;4.50;;
41546;SDS011;27271;45.412;10.852;2023-07-02T10:54:58;4.05;;;3.15;;
41546;SDS011;27271;45.412;10.852;2023-07-02T10:58:20;5.20;;;3.15;;
41546;SDS011;27271;45.412;10.852;2023-07-02T11:01:42;3.75;;;2.47;;
41546;SDS011;27271;45.412;10.852;2023-07-02T11:05:05;5.22;;;3.78;;
41546;SDS011;27271;45.412;10.852;2023-07-02T11:08:37;6.00;;;3.38;;
41546;SDS011;27271;45.412;10.852;2023-07-02T11:12:00;7.40;;;3.75;;
41546;SDS011;27271;45.412;10.852;2023-07-02T11:15:22;7.80;;;4.15;;
41546;SDS011;27271;45.412;10.852;2023-07-02T11:18:44;7.50;;;4.22;;
41546;SDS011;27271;45.412;10.852;2023-07-02T11:22:07;6.80;;;4.18;;
41546;SDS011;27271;45.412;10.852;2023-07-02T11:25:29;5.07;;;3.22;;
41546;SDS011;27271;45.412;10.852;2023-07-02T11:28:51;4.70;;;3.45;;
41546;SDS011;27271;45.412;10.852;2023-07-02T11:32:13;4.25;;;3.42;;
41546;SDS011;27271;45.412;10.852;2023-07-02T11:35:36;5.78;;;3.28;;
41546;SDS011;27271;45.412;10.852;2023-07-02T11:38:58;4.47;;;3.20;;
41546;SDS011;27271;45.412;10.852;2023-07-02T11:42:20;5.97;;;3.08;;
41546;SDS011;27271;45.412;10.852;2023-07-02T11:45:46;9.18;;;3.85;;
41546;SDS011;27271;45.412;10.852;2023-07-02T11:49:09;6.03;;;3.65;;
41546;SDS011;27271;45.412;10.852;2023-07-02T11:52:32;4.13;;;2.45;;
41546;SDS011;27271;45.412;10.852;2023-07-02T11:55:54;4.63;;;3.15;;
41546;SDS011;27271;45.412;10.852;2023-07-02T11:59:51;4.72;;;3.33;;
41546;SDS011;27271;45.412;10.852;2023-07-02T12:03:14;3.22;;;2.40;;
41546;SDS011;27271;45.412;10.852;2023-07-02T12:06:36;6.13;;;2.97;;
41546;SDS011;27271;45.412;10.852;2023-07-02T12:14:07;5.13;;;3.00;;
41546;SDS011;27271;45.412;10.852;2023-07-02T12:21:20;3.70;;;2.60;;
41546;SDS011;27271;45.412;10.852;2023-07-02T12:28:18;4.10;;;2.20;;
41546;SDS011;27271;45.412;10.852;2023-07-02T12:31:51;3.83;;;2.42;;
41546;SDS011;27271;45.412;10.852;2023-07-02T12:35:25;7.75;;;2.40;;
41546;SDS011;27271;45.412;10.852;2023-07-02T12:38:47;5.53;;;3.03;;
41546;SDS011;27271;45.412;10.852;2023-07-02T12:42:09;4.85;;;2.58;;
41546;SDS011;27271;45.412;10.852;2023-07-02T12:45:31;6.00;;;2.78;;
41546;SDS011;27271;45.412;10.852;2023-07-02T12:48:53;3.03;;;2.53;;
41546;SDS011;27271;45.412;10.852;2023-07-02T12:52:16;2.83;;;2.53;;
41546;SDS011;27271;45.412;10.852;2023-07-02T12:55:38;5.65;;;3.47;;
41546;SDS011;27271;45.412;10.852;2023-07-02T12:59:01;4.07;;;2.28;;
41546;SDS011;27271;45.412;10.852;2023-07-02T13:02:24;3.67;;;2.97;;
41546;SDS011;27271;45.412;10.852;2023-07-02T13:05:46;3.92;;;3.50;;
41546;SDS011;27271;45.412;10.852;2023-07-02T13:09:09;4.22;;;2.72;;
41546;SDS011;27271;45.412;10.852;2023-07-02T13:12:31;4.70;;;2.72;;
41546;SDS011;27271;45.412;10.852;2023-07-02T13:15:53;4.68;;;2.95;;
41546;SDS011;27271;45.412;10.852;2023-07-02T13:19:16;4.45;;;2.17;;
41546;SDS011;27271;45.412;10.852;2023-07-02T13:22:38;3.80;;;1.85;;
41546;SDS011;27271;45.412;10.852;2023-07-02T13:26:03;3.17;;;2.30;;
41546;SDS011;27271;45.412;10.852;2023-07-02T13:29:25;4.70;;;2.60;;
41546;SDS011;27271;45.412;10.852;2023-07-02T13:32:47;4.43;;;2.33;;
41546;SDS011;27271;45.412;10.852;2023-07-02T13:36:09;4.18;;;2.65;;
41546;SDS011;27271;45.412;10.852;2023-07-02T13:39:32;3.28;;;2.20;;
41546;SDS011;27271;45.412;10.852;2023-07-02T13:42:54;5.85;;;3.30;;
41546;SDS011;27271;45.412;10.852;2023-07-02T13:46:17;3.13;;;2.45;;
41546;SDS011;27271;45.412;10.852;2023-07-02T13:49:39;3.15;;;2.67;;
41546;SDS011;27271;45.412;10.852;2023-07-02T13:53:01;2.15;;;1.58;;
41546;SDS011;27271;45.412;10.852;2023-07-02T13:56:24;2.08;;;1.88;;
41546;SDS011;27271;45.412;10.852;2023-07-02T13:59:46;2.70;;;1.80;;
41546;SDS011;27271;45.412;10.852;2023-07-02T14:03:08;2.70;;;1.90;;
41546;SDS011;27271;45.412;10.852;2023-07-02T14:06:30;6.15;;;2.58;;
41546;SDS011;27271;45.412;10.852;2023-07-02T14:09:53;3.78;;;2.47;;
41546;SDS011;27271;45.412;10.852;2023-07-02T14:13:19;5.72;;;3.08;;
41546;SDS011;27271;45.412;10.852;2023-07-02T14:16:41;3.30;;;1.95;;
41546;SDS011;27271;45.412;10.852;2023-07-02T14:20:03;6.55;;;3.05;;
41546;SDS011;27271;45.412;10.852;2023-07-02T14:23:27;3.63;;;2.83;;
41546;SDS011;27271;45.412;10.852;2023-07-02T14:26:49;3.50;;;2.30;;
41546;SDS011;27271;45.412;10.852;2023-07-02T14:30:12;2.80;;;2.20;;
41546;SDS011;27271;45.412;10.852;2023-07-02T14:33:35;5.45;;;3.20;;
41546;SDS011;27271;45.412;10.852;2023-07-02T14:36:58;2.83;;;1.50;;
41546;SDS011;27271;45.412;10.852;2023-07-02T14:40:21;3.65;;;2.75;;
41546;SDS011;27271;45.412;10.852;2023-07-02T14:43:43;4.88;;;2.60;;
41546;SDS011;27271;45.412;10.852;2023-07-02T14:47:05;3.80;;;2.30;;
41546;SDS011;27271;45.412;10.852;2023-07-02T14:50:27;2.67;;;1.83;;
41546;SDS011;27271;45.412;10.852;2023-07-02T14:53:51;3.50;;;2.33;;
41546;SDS011;27271;45.412;10.852;2023-07-02T14:57:14;4.38;;;2.38;;
41546;SDS011;27271;45.412;10.852;2023-07-02T15:00:48;2.85;;;2.00;;
41546;SDS011;27271;45.412;10.852;2023-07-02T15:04:15;2.90;;;2.03;;
41546;SDS011;27271;45.412;10.852;2023-07-02T15:07:38;4.45;;;2.75;;
41546;SDS011;27271;45.412;10.852;2023-07-02T15:11:00;1.58;;;1.27;;
41546;SDS011;27271;45.412;10.852;2023-07-02T15:14:23;2.08;;;1.95;;
41546;SDS011;27271;45.412;10.852;2023-07-02T15:17:45;4.60;;;2.28;;
41546;SDS011;27271;45.412;10.852;2023-07-02T15:21:07;5.75;;;2.15;;
41546;SDS011;27271;45.412;10.852;2023-07-02T15:24:30;2.33;;;2.00;;
41546;SDS011;27271;45.412;10.852;2023-07-02T15:27:58;2.08;;;1.60;;
41546;SDS011;27271;45.412;10.852;2023-07-02T15:31:20;3.85;;;2.22;;
41546;SDS011;27271;45.412;10.852;2023-07-02T15:34:42;2.50;;;2.05;;
41546;SDS011;27271;45.412;10.852;2023-07-02T15:38:04;3.30;;;2.47;;
41546;SDS011;27271;45.412;10.852;2023-07-02T15:41:27;2.42;;;2.10;;
41546;SDS011;27271;45.412;10.852;2023-07-02T15:44:49;4.93;;;2.47;;
41546;SDS011;27271;45.412;10.852;2023-07-02T15:48:11;2.40;;;1.77;;
41546;SDS011;27271;45.412;10.852;2023-07-02T15:51:33;3.55;;;2.05;;
41546;SDS011;27271;45.412;10.852;2023-07-02T15:54:58;3.03;;;2.53;;
41546;SDS011;27271;45.412;10.852;2023-07-02T15:58:20;2.85;;;2.00;;
41546;SDS011;27271;45.412;10.852;2023-07-02T16:01:42;2.25;;;1.80;;
41546;SDS011;27271;45.412;10.852;2023-07-02T16:05:12;2.92;;;2.03;;
41546;SDS011;27271;45.412;10.852;2023-07-02T16:08:35;2.92;;;2.28;;
41546;SDS011;27271;45.412;10.852;2023-07-02T16:11:57;2.80;;;2.30;;
41546;SDS011;27271;45.412;10.852;2023-07-02T16:15:19;2.88;;;1.77;;
41546;SDS011;27271;45.412;10.852;2023-07-02T16:18:41;2.78;;;2.35;;
41546;SDS011;27271;45.412;10.852;2023-07-02T16:22:03;3.25;;;2.05;;
41546;SDS011;27271;45.412;10.852;2023-07-02T16:25:27;2.30;;;1.80;;
41546;SDS011;27271;45.412;10.852;2023-07-02T16:28:49;2.85;;;1.40;;
41546;SDS011;27271;45.412;10.852;2023-07-02T16:32:11;3.67;;;1.63;;
41546;SDS011;27271;45.412;10.852;2023-07-02T16:35:39;2.40;;;1.92;;
41546;SDS011;27271;45.412;10.852;2023-07-02T16:39:01;1.90;;;1.35;;
41546;SDS011;27271;45.412;10.852;2023-07-02T16:42:23;3.65;;;2.22;;
41546;SDS011;27271;45.412;10.852;2023-07-02T16:45:50;4.13;;;2.30;;
41546;SDS011;27271;45.412;10.852;2023-07-02T16:49:14;2.08;;;1.83;;
41546;SDS011;27271;45.412;10.852;2023-07-02T16:52:36;2.38;;;1.33;;
41546;SDS011;27271;45.412;10.852;2023-07-02T16:55:59;1.55;;;1.30;;
41546;SDS011;27271;45.412;10.852;2023-07-02T16:59:24;2.72;;;1.90;;
41546;SDS011;27271;45.412;10.852;2023-07-02T17:02:47;2.00;;;1.73;;
41546;SDS011;27271;45.412;10.852;2023-07-02T17:06:10;4.05;;;1.70;;
41546;SDS011;27271;45.412;10.852;2023-07-02T17:09:33;2.50;;;1.77;;
41546;SDS011;27271;45.412;10.852;2023-07-02T17:12:58;1.73;;;1.60;;
41546;SDS011;27271;45.412;10.852;2023-07-02T17:16:20;2.38;;;2.03;;
41546;SDS011;27271;45.412;10.852;2023-07-02T17:19:44;3.03;;;1.95;;
41546;SDS011;27271;45.412;10.852;2023-07-02T17:23:10;1.23;;;1.13;;
41546;SDS011;27271;45.412;10.852;2023-07-02T17:26:32;2.70;;;1.80;;
41546;SDS011;27271;45.412;10.852;2023-07-02T17:29:55;3.03;;;2.22;;
41546;SDS011;27271;45.412;10.852;2023-07-02T17:33:19;1.50;;;1.40;;
41546;SDS011;27271;45.412;10.852;2023-07-02T17:36:42;2.95;;;2.13;;
41546;SDS011;27271;45.412;10.852;2023-07-02T17:40:06;4.32;;;1.90;;
41546;SDS011;27271;45.412;10.852;2023-07-02T17:43:29;2.60;;;2.05;;
41546;SDS011;27271;45.412;10.852;2023-07-02T17:46:52;3.13;;;1.83;;
41546;SDS011;27271;45.412;10.852;2023-07-02T17:50:15;3.83;;;2.03;;
41546;SDS011;27271;45.412;10.852;2023-07-02T17:53:38;1.92;;;1.63;;
41546;SDS011;27271;45.412;10.852;2023-07-02T17:57:00;3.20;;;1.73;;
41546;SDS011;27271;45.412;10.852;2023-07-02T18:00:22;1.73;;;1.52;;
41546;SDS011;27271;45.412;10.852;2023-07-02T18:03:45;1.67;;;1.58;;
41546;SDS011;27271;45.412;10.852;2023-07-02T18:10:31;3.35;;;1.80;;
41546;SDS011;27271;45.412;10.852;2023-07-02T18:13:53;4.20;;;1.90;;
41546;SDS011;27271;45.412;10.852;2023-07-02T18:17:15;4.10;;;2.20;;
41546;SDS011;27271;45.412;10.852;2023-07-02T18:20:38;1.40;;;1.30;;
41546;SDS011;27271;45.412;10.852;2023-07-02T18:24:00;1.52;;;1.42;;
41546;SDS011;27271;45.412;10.852;2023-07-02T18:27:22;3.53;;;1.60;;
41546;SDS011;27271;45.412;10.852;2023-07-02T18:30:46;3.53;;;2.40;;
41546;SDS011;27271;45.412;10.852;2023-07-02T18:34:09;6.93;;;3.65;;
41546;SDS011;27271;45.412;10.852;2023-07-02T18:37:31;9.55;;;3.53;;
41546;SDS011;27271;45.412;10.852;2023-07-02T18:41:04;3.08;;;2.25;;
41546;SDS011;27271;45.412;10.852;2023-07-02T18:44:28;1.70;;;1.30;;
41546;SDS011;27271;45.412;10.852;2023-07-02T18:47:55;4.72;;;2.72;;
41546;SDS011;27271;45.412;10.852;2023-07-02T18:51:18;3.75;;;2.08;;
41546;SDS011;27271;45.412;10.852;2023-07-02T18:54:40;2.65;;;2.13;;
41546;SDS011;27271;45.412;10.852;2023-07-02T18:58:03;2.55;;;1.42;;
41546;SDS011;27271;45.412;10.852;2023-07-02T19:01:25;2.75;;;1.95;;
41546;SDS011;27271;45.412;10.852;2023-07-02T19:04:49;5.63;;;2.72;;
41546;SDS011;27271;45.412;10.852;2023-07-02T19:08:12;2.13;;;1.50;;
41546;SDS011;27271;45.412;10.852;2023-07-02T19:11:34;2.72;;;1.60;;
41546;SDS011;27271;45.412;10.852;2023-07-02T19:14:57;5.68;;;3.08;;
41546;SDS011;27271;45.412;10.852;2023-07-02T19:18:20;2.38;;;2.15;;
41546;SDS011;27271;45.412;10.852;2023-07-02T19:21:42;2.75;;;1.52;;
41546;SDS011;27271;45.412;10.852;2023-07-02T19:25:05;4.80;;;2.30;;
41546;SDS011;27271;45.412;10.852;2023-07-02T19:28:27;2.55;;;1.40;;
41546;SDS011;27271;45.412;10.852;2023-07-02T19:31:49;3.55;;;1.73;;
41546;SDS011;27271;45.412;10.852;2023-07-02T19:35:12;2.08;;;1.73;;
41546;SDS011;27271;45.412;10.852;2023-07-02T19:38:34;3.95;;;2.22;;
41546;SDS011;27271;45.412;10.852;2023-07-02T19:41:56;2.25;;;1.40;;
41546;SDS011;27271;45.412;10.852;2023-07-02T19:45:18;2.15;;;1.65;;
41546;SDS011;27271;45.412;10.852;2023-07-02T19:48:40;2.88;;;2.33;;
41546;SDS011;27271;45.412;10.852;2023-07-02T19:52:03;4.95;;;1.85;;
41546;SDS011;27271;45.412;10.852;2023-07-02T19:55:25;4.70;;;3.20;;
41546;SDS011;27271;45.412;10.852;2023-07-02T19:58:48;4.63;;;2.40;;
41546;SDS011;27271;45.412;10.852;2023-07-02T20:02:11;2.70;;;1.75;;
41546;SDS011;27271;45.412;10.852;2023-07-02T20:05:39;5.20;;;1.87;;
41546;SDS011;27271;45.412;10.852;2023-07-02T20:09:02;3.30;;;2.63;;
41546;SDS011;27271;45.412;10.852;2023-07-02T20:12:24;4.75;;;2.40;;
41546;SDS011;27271;45.412;10.852;2023-07-02T20:15:50;3.97;;;2.25;;
41546;SDS011;27271;45.412;10.852;2023-07-02T20:19:15;5.90;;;2.58;;
41546;SDS011;27271;45.412;10.852;2023-07-02T20:22:41;3.58;;;2.67;;
41546;SDS011;27271;45.412;10.852;2023-07-02T20:26:12;4.13;;;2.58;;
41546;SDS011;27271;45.412;10.852;2023-07-02T20:29:36;3.15;;;2.42;;
41546;SDS011;27271;45.412;10.852;2023-07-02T20:32:59;4.95;;;3.10;;
41546;SDS011;27271;45.412;10.852;2023-07-02T20:36:21;3.85;;;2.55;;
41546;SDS011;27271;45.412;10.852;2023-07-02T20:39:44;5.15;;;2.53;;
41546;SDS011;27271;45.412;10.852;2023-07-02T20:43:07;3.65;;;2.00;;
41546;SDS011;27271;45.412;10.852;2023-07-02T20:46:35;2.08;;;1.83;;
41546;SDS011;27271;45.412;10.852;2023-07-02T20:49:58;2.75;;;1.83;;
41546;SDS011;27271;45.412;10.852;2023-07-02T20:53:20;4.53;;;2.20;;
41546;SDS011;27271;45.412;10.852;2023-07-02T20:56:42;4.55;;;2.67;;
41546;SDS011;27271;45.412;10.852;2023-07-02T21:00:08;4.05;;;2.17;;
41546;SDS011;27271;45.412;10.852;2023-07-02T21:03:33;2.90;;;2.22;;
41546;SDS011;27271;45.412;10.852;2023-07-02T21:06:55;4.20;;;2.47;;
41546;SDS011;27271;45.412;10.852;2023-07-02T21:10:17;2.47;;;1.90;;
41546;SDS011;27271;45.412;10.852;2023-07-02T21:13:39;3.45;;;2.20;;
41546;SDS011;27271;45.412;10.852;2023-07-02T21:17:01;3.10;;;2.13;;
41546;SDS011;27271;45.412;10.852;2023-07-02T21:20:24;3.53;;;2.13;;
41546;SDS011;27271;45.412;10.852;2023-07-02T21:23:48;3.03;;;2.20;;
41546;SDS011;27271;45.412;10.852;2023-07-02T21:27:10;4.93;;;2.38;;
41546;SDS011;27271;45.412;10.852;2023-07-02T21:30:32;3.63;;;2.13;;
41546;SDS011;27271;45.412;10.852;2023-07-02T21:33:54;4.60;;;2.17;;
41546;SDS011;27271;45.412;10.852;2023-07-02T21:37:16;3.97;;;2.13;;
41546;SDS011;27271;45.412;10.852;2023-07-02T21:40:38;4.30;;;2.50;;
41546;SDS011;27271;45.412;10.852;2023-07-02T21:44:00;3.97;;;2.22;;
41546;SDS011;27271;45.412;10.852;2023-07-02T21:47:22;2.65;;;2.38;;
41546;SDS011;27271;45.412;10.852;2023-07-02T21:50:50;2.83;;;1.90;;
41546;SDS011;27271;45.412;10.852;2023-07-02T21:54:12;3.10;;;1.65;;
41546;SDS011;27271;45.412;10.852;2023-07-02T21:57:34;3.85;;;1.92;;
41546;SDS011;27271;45.412;10.852;2023-07-02T22:00:57;2.50;;;2.28;;
41546;SDS011;27271;45.412;10.852;2023-07-02T22:04:19;2.22;;;2.00;;
41546;SDS011;27271;45.412;10.852;2023-07-02T22:07:41;2.33;;;1.60;;
41546;SDS011;27271;45.412;10.852;2023-07-02T22:11:03;3.35;;;2.65;;
41546;SDS011;27271;45.412;10.852;2023-07-02T22:14:43;6.03;;;2.60;;
41546;SDS011;27271;45.412;10.852;2023-07-02T22:18:05;2.83;;;1.50;;
41546;SDS011;27271;45.412;10.852;2023-07-02T22:21:27;4.75;;;2.45;;
41546;SDS011;27271;45.412;10.852;2023-07-02T22:24:50;2.10;;;1.42;;
41546;SDS011;27271;45.412;10.852;2023-07-02T22:28:12;3.92;;;2.60;;
